Time;durP1;ratioP1;P1;durP2;ratioP2;P2;SDS_P1;SDS_P2;PMS_P1;PMS_P2;Temp;Humidity;BMP_temperature;BMP_pressure;BME280_temperature;BME280_humidity;BME280_pressure;Samples;Min_cycle;Max_cycle;Signal;HPM_P1;HPM_P2
2024/01/17 00:01:54;;;;;;;172.75;7.20;;;;;;;19.67;50.12;98343.41;7292565;19;129088;-37
2024/01/17 00:04:19;;;;;;;239.10;9.80;;;;;;;19.51;50.59;98326.88;7292398;19;129068;-39
2024/01/17 00:06:45;;;;;;;185.90;7.45;;;;;;;19.63;50.36;98349.09;7293667;19;129895;-41
2024/01/17 00:09:10;;;;;;;187.75;7.70;;;;;;;19.53;49.95;98348.41;7291649;19;130007;-36
2024/01/17 00:11:36;;;;;;;171.95;6.90;;;;;;;19.40;50.80;98354.84;7292340;19;129704;-35
2024/01/17 00:14:01;;;;;;;205.35;8.45;;;;;;;19.34;50.63;98347.66;7289748;19;129324;-38
2024/01/17 00:16:26;;;;;;;182.02;7.78;;;;;;;19.29;51.22;98338.69;7290820;19;130626;-38
2024/01/17 00:18:53;;;;;;;195.18;8.05;;;;;;;19.27;50.55;98344.00;7291010;19;131479;-40
2024/01/17 00:21:19;;;;;;;246.52;9.65;;;;;;;19.24;50.78;98336.50;7293011;19;129267;-37
2024/01/17 00:23:44;;;;;;;219.13;8.73;;;;;;;19.48;50.38;98340.25;7292238;19;129412;-39
2024/01/17 00:26:09;;;;;;;216.88;8.85;;;;;;;19.50;50.71;98343.50;7291856;19;130859;-41
2024/01/17 00:28:35;;;;;;;209.07;8.43;;;;;;;19.57;49.93;98339.31;7290047;19;132014;-41
2024/01/17 00:31:00;;;;;;;203.10;8.77;;;;;;;19.67;50.64;98342.59;7290082;19;130856;-34
2024/01/17 00:33:25;;;;;;;136.90;5.57;;;;;;;19.79;49.93;98334.31;7292212;19;130220;-35
2024/01/17 00:35:51;;;;;;;109.82;4.65;;;;;;;19.75;49.42;98321.78;7291916;19;130728;-37
2024/01/17 00:38:16;;;;;;;266.75;10.65;;;;;;;19.96;49.43;98330.78;7287005;19;129918;-38
2024/01/17 00:40:41;;;;;;;226.73;9.18;;;;;;;20.11;49.42;98328.38;7291610;19;130499;-38
2024/01/17 00:43:07;;;;;;;225.40;9.57;;;;;;;20.30;49.04;98317.66;7292395;19;132542;-38
2024/01/17 00:45:33;;;;;;;203.55;8.25;;;;;;;20.40;48.48;98321.75;7291139;19;130399;-37
2024/01/17 00:47:58;;;;;;;215.18;8.98;;;;;;;20.68;47.75;98302.16;7289842;19;130511;-41
2024/01/17 00:50:23;;;;;;;270.00;10.85;;;;;;;20.81;47.18;98300.84;7291578;19;131060;-40
2024/01/17 00:52:49;;;;;;;180.85;7.47;;;;;;;21.01;46.36;98289.88;7292751;19;130572;-39
2024/01/17 00:55:14;;;;;;;187.43;7.75;;;;;;;21.01;46.63;98286.44;7286859;19;130953;-36
2024/01/17 00:57:44;;;;;;;130.48;5.20;;;;;;;20.69;46.99;98288.09;7289206;19;131073;-41
2024/01/17 01:00:10;;;;;;;229.57;8.95;;;;;;;20.34;47.33;98277.22;7289820;19;130436;-34
2024/01/17 01:02:35;;;;;;;174.88;7.15;;;;;;;20.24;47.33;98271.34;7291720;19;129577;-39
2024/01/17 01:05:00;;;;;;;277.55;11.90;;;;;;;20.13;47.58;98269.03;7291128;19;130073;-40
2024/01/17 01:07:26;;;;;;;230.88;9.23;;;;;;;20.07;48.33;98264.44;7290507;19;130899;-41
2024/01/17 01:09:51;;;;;;;202.60;7.90;;;;;;;20.52;47.55;98264.78;7289900;19;130726;-37
2024/01/17 01:12:16;;;;;;;175.23;6.90;;;;;;;20.70;47.72;98268.03;7287369;19;129605;-36
2024/01/17 01:14:42;;;;;;;180.85;7.40;;;;;;;20.65;47.32;98275.53;7291607;19;130776;-39
2024/01/17 01:17:07;;;;;;;265.75;11.05;;;;;;;20.65;47.69;98272.94;7290709;19;130713;-39
2024/01/17 01:19:33;;;;;;;147.63;5.90;;;;;;;20.56;48.18;98272.13;7289407;19;129716;-38
2024/01/17 01:21:58;;;;;;;149.88;6.40;;;;;;;20.47;47.79;98280.13;7290514;19;129242;-36
2024/01/17 01:24:23;;;;;;;191.25;7.97;;;;;;;20.40;48.20;98282.59;7287194;19;130248;-38
2024/01/17 01:26:49;;;;;;;224.43;9.02;;;;;;;20.41;48.66;98284.22;7297098;19;131913;-41
2024/01/17 01:29:14;;;;;;;184.02;7.72;;;;;;;20.44;48.62;98283.09;7296629;19;129767;-39
2024/01/17 01:31:40;;;;;;;134.32;5.63;;;;;;;20.36;48.42;98283.09;7296845;19;129588;-39
2024/01/17 01:34:05;;;;;;;199.10;8.23;;;;;;;20.27;48.76;98276.22;7296650;19;131072;-38
2024/01/17 01:36:31;;;;;;;272.70;10.85;;;;;;;20.26;49.52;98274.59;7296910;19;130294;-39
2024/01/17 01:38:56;;;;;;;185.90;7.70;;;;;;;20.21;49.15;98282.09;7296486;19;130302;-40
2024/01/17 01:41:21;;;;;;;149.30;6.07;;;;;;;19.97;49.67;98261.16;7296505;19;129414;-37
2024/01/17 01:43:47;;;;;;;243.80;10.02;;;;;;;19.83;48.97;98282.69;7293831;19;129967;-41
2024/01/17 01:46:27;;;;;;;238.50;9.43;;;;;;;19.67;49.71;98272.22;7296166;19;132366;-39
2024/01/17 01:48:52;;;;;;;188.38;7.43;;;;;;;19.50;50.34;98265.31;7296535;19;129134;-37
2024/01/17 01:51:19;;;;;;;228.15;8.90;;;;;;;19.45;50.63;98279.63;7297818;19;129818;-40
2024/01/17 01:53:48;;;;;;;110.60;4.75;;;;;;;19.45;50.11;98276.22;7295460;19;130367;-39
2024/01/17 01:56:18;;;;;;;264.80;10.65;;;;;;;19.59;50.18;98274.78;7295245;19;131387;-36
2024/01/17 01:58:46;;;;;;;262.50;10.60;;;;;;;19.74;49.79;98265.38;7293803;19;129734;-38
2024/01/17 02:01:14;;;;;;;194.48;8.23;;;;;;;19.87;50.01;98265.72;7298307;19;130096;-40
2024/01/17 02:03:43;;;;;;;220.02;8.55;;;;;;;19.90;49.98;98268.03;7295644;19;131129;-40
2024/01/17 02:06:10;;;;;;;210.25;8.75;;;;;;;19.94;49.70;98264.09;7296959;19;130630;-37
2024/01/17 02:08:36;;;;;;;239.10;9.52;;;;;;;20.02;49.09;98261.50;7295345;19;129184;-41
2024/01/17 02:11:01;;;;;;;184.88;7.75;;;;;;;20.16;48.86;98250.47;7297153;19;130190;-34
2024/01/17 02:13:27;;;;;;;125.38;5.25;;;;;;;20.16;49.12;98250.47;7295636;19;130130;-38
2024/01/17 02:15:53;;;;;;;227.27;8.98;;;;;;;20.28;48.72;98236.13;7295545;19;130826;-39
2024/01/17 02:18:18;;;;;;;247.25;9.85;;;;;;;20.28;48.75;98236.91;7294794;19;129503;-38
2024/01/17 02:20:44;;;;;;;197.85;7.93;;;;;;;20.27;49.16;98232.69;7294505;19;130255;-41
2024/01/17 02:23:28;;;;;;;169.10;7.32;;;;;;;20.34;48.56;98230.22;7295146;19;130572;-35
2024/01/17 02:25:58;;;;;;;176.43;7.32;;;;;;;20.24;48.77;98230.41;7292719;19;130548;-39
2024/01/17 02:28:26;;;;;;;202.82;8.18;;;;;;;20.33;48.61;98220.75;7293555;19;129269;-36
2024/01/17 02:30:52;;;;;;;224.68;8.90;;;;;;;20.09;48.60;98220.75;7295754;19;129880;-33
2024/01/17 02:33:19;;;;;;;145.77;5.93;;;;;;;19.87;48.67;98206.56;7295632;19;131319;-37
2024/01/17 02:35:44;;;;;;;182.13;7.45;;;;;;;19.77;49.49;98215.50;7294215;19;129696;-42
2024/01/17 02:38:10;;;;;;;229.50;9.45;;;;;;;19.66;49.91;98197.56;7291098;19;129483;-34
2024/01/17 02:40:35;;;;;;;207.93;8.30;;;;;;;19.57;50.03;98196.72;7293298;19;130145;-38
2024/01/17 02:43:01;;;;;;;206.85;8.60;;;;;;;19.73;49.73;98188.97;7294934;19;130398;-41
2024/01/17 02:45:26;;;;;;;128.98;5.20;;;;;;;20.00;49.38;98174.78;7292760;19;130823;-39
2024/01/17 02:47:51;;;;;;;239.82;9.27;;;;;;;20.00;49.61;98180.78;7293630;19;129520;-37
2024/01/17 02:50:17;;;;;;;184.68;7.60;;;;;;;20.02;49.60;98168.41;7294882;19;130722;-40
2024/01/17 02:52:46;;;;;;;179.40;7.50;;;;;;;19.97;49.12;98160.25;7295455;19;130126;-36
2024/01/17 02:55:13;;;;;;;253.73;10.43;;;;;;;19.88;50.02;98168.25;7292457;19;130610;-38
2024/01/17 02:57:39;;;;;;;192.38;7.60;;;;;;;19.92;49.54;98162.53;7293480;19;129546;-40
2024/01/17 03:00:09;;;;;;;254.67;10.33;;;;;;;19.90;50.04;98158.47;7294044;19;130275;-39
2024/01/17 03:02:35;;;;;;;175.15;7.10;;;;;;;19.74;49.56;98127.16;7295835;19;131099;-41
2024/01/17 03:05:00;;;;;;;152.00;6.20;;;;;;;19.89;49.66;98151.63;7294793;19;131175;-38
2024/01/17 03:07:26;;;;;;;245.43;9.93;;;;;;;19.94;50.05;98144.94;7292913;19;129764;-38
2024/01/17 03:09:51;;;;;;;168.20;6.82;;;;;;;19.98;49.24;98145.44;7294127;19;130765;-39
2024/01/17 03:12:17;;;;;;;244.65;10.45;;;;;;;19.84;49.47;98112.19;7293444;19;130962;-40
2024/01/17 03:14:42;;;;;;;174.68;7.18;;;;;;;20.03;49.96;98136.13;7289598;19;130333;-36
2024/01/17 03:17:08;;;;;;;269.40;10.60;;;;;;;19.98;49.56;98135.78;7293818;19;129369;-38
2024/01/17 03:19:33;;;;;;;180.88;7.30;;;;;;;19.66;49.50;98120.19;7292111;19;130068;-40
2024/01/17 03:22:01;;;;;;;106.35;4.20;;;;;;;19.75;49.54;98128.81;7295366;19;130134;-39
2024/01/17 03:24:26;;;;;;;204.00;8.50;;;;;;;19.68;49.18;98128.66;7291088;19;130528;-38
2024/01/17 03:26:51;;;;;;;211.27;8.32;;;;;;;19.64;49.19;98127.34;7289685;19;130684;-38
2024/01/17 03:29:17;;;;;;;217.98;9.18;;;;;;;19.62;50.02;98123.28;7291603;19;132929;-37
2024/01/17 03:31:42;;;;;;;144.45;5.93;;;;;;;19.97;48.87;98107.28;7294507;19;131341;-41
2024/01/17 03:34:07;;;;;;;161.60;6.95;;;;;;;20.29;48.63;98113.28;7295187;19;131366;-34
2024/01/17 03:36:33;;;;;;;202.98;7.95;;;;;;;20.28;48.71;98116.06;7292678;19;129490;-36
2024/01/17 03:38:58;;;;;;;134.90;5.38;;;;;;;20.27;48.78;98111.81;7293433;19;129194;-37
2024/01/17 03:41:24;;;;;;;200.65;8.20;;;;;;;20.16;49.16;98091.31;7291184;19;129632;-38
2024/01/17 03:43:50;;;;;;;193.38;7.88;;;;;;;20.29;49.31;98108.06;7293529;19;130862;-38
2024/01/17 03:46:16;;;;;;;216.52;9.00;;;;;;;20.28;49.15;98103.03;7293310;19;129238;-34
2024/01/17 03:48:41;;;;;;;176.93;6.95;;;;;;;20.16;49.36;98101.75;7292912;19;130833;-36
2024/01/17 03:51:07;;;;;;;166.23;6.63;;;;;;;20.11;49.05;98094.38;7293324;19;131181;-41
2024/01/17 03:53:32;;;;;;;241.52;9.48;;;;;;;19.96;49.32;98069.97;7292254;19;129382;-41
2024/01/17 03:55:58;;;;;;;177.05;6.80;;;;;;;20.07;49.44;98092.25;7290355;19;130098;-37
2024/01/17 03:58:23;;;;;;;187.57;7.53;;;;;;;19.98;49.88;98095.88;7291876;19;129790;-38
2024/01/17 04:00:48;;;;;;;208.90;8.38;;;;;;;19.91;49.81;98092.28;7290113;19;130041;-38
2024/01/17 04:03:14;;;;;;;237.73;9.68;;;;;;;19.90;50.44;98095.88;7294709;19;130732;-39
2024/01/17 04:05:43;;;;;;;182.38;7.28;;;;;;;19.91;50.02;98087.91;7295357;19;130010;-40
2024/01/17 04:08:09;;;;;;;214.35;8.77;;;;;;;19.63;49.52;98072.75;7290191;19;129342;-39
2024/01/17 04:10:34;;;;;;;123.07;5.03;;;;;;;19.64;49.73;98087.41;7293416;19;130831;-40
2024/01/17 04:13:00;;;;;;;230.88;9.23;;;;;;;19.59;49.46;98079.25;7293054;19;133277;-39
2024/01/17 04:15:25;;;;;;;187.77;7.40;;;;;;;19.57;49.37;98071.63;7292541;19;128995;-37
2024/01/17 04:17:51;;;;;;;168.20;6.78;;;;;;;19.54;50.10;98063.31;7294198;19;132957;-40
2024/01/17 04:20:16;;;;;;;178.02;7.55;;;;;;;19.62;49.18;98066.72;7292465;19;130124;-39
2024/01/17 04:22:42;;;;;;;266.85;10.57;;;;;;;19.99;49.40;98053.97;7292165;19;130399;-37
2024/01/17 04:25:07;;;;;;;151.07;6.00;;;;;;;20.22;48.63;98043.66;7293174;19;129095;-36
2024/01/17 04:27:33;;;;;;;215.60;8.63;;;;;;;20.19;48.90;98034.38;7292918;19;129986;-39
2024/01/17 04:29:58;;;;;;;135.77;5.40;;;;;;;20.28;48.42;98041.19;7293975;19;130105;-37
2024/01/17 04:32:24;;;;;;;237.63;9.57;;;;;;;20.28;48.91;98033.34;7293344;19;129293;-41
2024/01/17 04:34:50;;;;;;;197.97;8.30;;;;;;;20.24;48.50;98015.59;7292304;19;129087;-34
2024/01/17 04:37:16;;;;;;;213.35;8.75;;;;;;;20.35;48.87;98038.72;7292515;19;130828;-37
2024/01/17 04:39:41;;;;;;;189.52;7.38;;;;;;;20.35;49.06;98030.88;7290859;19;130376;-40
2024/01/17 04:42:06;;;;;;;240.55;9.38;;;;;;;20.32;49.04;98034.66;7293944;19;129262;-41
2024/01/17 04:44:32;;;;;;;136.90;5.65;;;;;;;20.24;49.45;98036.47;7292680;19;129853;-38
2024/01/17 04:46:58;;;;;;;195.57;8.17;;;;;;;20.36;48.93;98029.91;7289167;19;129855;-37
2024/01/17 04:49:27;;;;;;;234.35;9.90;;;;;;;20.41;49.10;98022.38;7291408;19;130891;-38
2024/01/17 04:51:53;;;;;;;236.90;9.77;;;;;;;20.36;48.72;98012.44;7292331;19;131598;-40
2024/01/17 04:54:23;;;;;;;221.27;9.25;;;;;;;20.50;48.64;98010.91;7290651;19;130073;-41
2024/01/17 04:56:49;;;;;;;195.30;7.85;;;;;;;20.26;48.00;98003.19;7289759;19;129998;-41
2024/01/17 04:59:14;;;;;;;200.55;7.95;;;;;;;20.11;48.64;97999.63;7289064;19;132908;-34
2024/01/17 05:01:40;;;;;;;147.00;5.88;;;;;;;20.09;48.02;97996.38;7291242;19;129803;-43
2024/01/17 05:04:05;;;;;;;175.55;7.10;;;;;;;20.04;48.76;97981.25;7292427;19;129085;-42
2024/01/17 05:06:32;;;;;;;158.98;6.38;;;;;;;19.96;48.71;97962.19;7289347;19;130474;-37
2024/01/17 05:08:58;;;;;;;;;;;;;;;20.45;47.93;97968.84;7290056;19;131457;-39
2024/01/17 05:11:24;;;;;;;238.85;9.52;;;;;;;20.62;47.85;97962.56;7289494;19;130787;-36
2024/01/17 05:13:49;;;;;;;168.00;6.63;;;;;;;20.72;47.92;97957.91;7292504;19;129050;-38
2024/01/17 05:16:16;;;;;;;199.25;8.32;;;;;;;20.52;47.85;97951.50;7288235;19;129124;-40
2024/01/17 05:18:41;;;;;;;179.00;7.33;;;;;;;20.45;48.11;97955.78;7288134;19;131034;-37
2024/01/17 05:21:08;;;;;;;195.05;7.47;;;;;;;20.35;48.42;97949.97;7291197;19;131551;-40
2024/01/17 05:23:33;;;;;;;169.13;7.10;;;;;;;20.29;48.25;97948.88;7291789;19;129734;-41
2024/01/17 05:25:59;;;;;;;242.50;9.77;;;;;;;20.26;48.77;97943.19;7284495;19;129656;-38
2024/01/17 05:28:24;;;;;;;190.63;7.82;;;;;;;20.13;48.80;97935.84;7286938;19;130733;-37
2024/01/17 05:30:50;;;;;;;197.52;7.90;;;;;;;19.88;49.36;97904.84;7288956;19;130320;-38
2024/01/17 05:33:16;;;;;;;184.93;7.75;;;;;;;19.94;49.86;97930.25;7288817;19;129469;-42
2024/01/17 05:35:41;;;;;;;177.73;7.37;;;;;;;19.87;49.96;97922.28;7288614;19;129540;-38
2024/01/17 05:38:07;;;;;;;245.27;9.82;;;;;;;19.87;50.38;97919.69;7288202;19;131475;-39
2024/01/17 05:40:32;;;;;;;197.95;8.20;;;;;;;19.78;49.99;97910.28;7290382;19;131504;-36
2024/01/17 05:42:57;;;;;;;173.45;7.50;;;;;;;19.69;50.19;97902.63;7291815;19;131113;-42
2024/01/17 05:45:23;;;;;;;144.82;6.10;;;;;;;19.45;49.81;97883.47;7290176;19;129813;-41
2024/01/17 05:47:48;;;;;;;351.65;14.43;;;;;;;19.53;50.42;97897.47;7286835;19;132477;-38
2024/01/17 05:50:14;;;;;;;162.07;6.80;;;;;;;19.50;50.50;97897.81;7288348;19;130339;-38
2024/01/17 05:52:45;;;;;;;125.27;5.43;;;;;;;19.48;49.87;97892.78;7290472;19;131936;-40
2024/01/17 05:55:12;;;;;;;177.50;7.47;;;;;;;19.45;50.07;97882.69;7289328;19;129354;-40
2024/01/17 05:57:38;;;;;;;216.95;8.40;;;;;;;19.51;50.54;97881.19;7289975;19;132938;-39
2024/01/17 06:00:04;;;;;;;184.13;7.45;;;;;;;19.59;49.99;97886.38;7284322;19;130525;-35
2024/01/17 06:02:30;;;;;;;205.50;8.25;;;;;;;19.57;50.02;97881.31;7287904;19;131085;-38
2024/01/17 06:04:55;;;;;;;200.48;8.50;;;;;;;19.55;50.28;97878.09;7286781;19;130142;-37
2024/01/17 06:07:21;;;;;;;243.50;9.93;;;;;;;19.52;50.83;97872.41;7281948;19;130164;-38
2024/01/17 06:09:46;;;;;;;216.48;8.68;;;;;;;19.56;50.86;97871.06;7283527;19;131020;-38
2024/01/17 06:12:11;;;;;;;206.95;8.40;;;;;;;19.50;51.08;97869.16;7288831;19;131166;-39
2024/01/17 06:14:39;;;;;;;154.20;6.30;;;;;;;19.48;50.83;97865.88;7295275;19;129894;-39
2024/01/17 06:17:05;;;;;;;164.02;6.60;;;;;;;19.45;51.11;97865.25;7294142;19;130723;-38
2024/01/17 06:19:30;;;;;;;229.65;9.63;;;;;;;19.49;51.11;97852.69;7290157;19;130268;-38
2024/01/17 06:21:55;;;;;;;137.95;5.60;;;;;;;19.53;50.53;97855.78;7294817;19;129132;-38
2024/01/17 06:24:21;;;;;;;218.13;8.80;;;;;;;19.57;50.96;97875.31;7293345;19;129652;-38
2024/01/17 06:26:46;;;;;;;211.35;8.57;;;;;;;19.52;51.06;97854.16;7287624;19;130833;-38
2024/01/17 06:29:11;;;;;;;267.45;11.35;;;;;;;19.53;51.23;97847.97;7292076;19;130166;-39
2024/01/17 06:31:38;;;;;;;187.82;7.57;;;;;;;19.36;51.25;97816.75;7294986;19;131920;-38
2024/01/17 06:34:03;;;;;;;266.57;10.37;;;;;;;19.27;50.49;97815.13;7296401;19;129779;-39
2024/01/17 06:36:28;;;;;;;198.77;8.43;;;;;;;19.35;50.57;97837.78;7294743;19;131383;-38
2024/01/17 06:38:54;;;;;;;206.43;8.38;;;;;;;19.18;50.69;97812.72;7290539;19;130590;-38
2024/01/17 06:41:19;;;;;;;193.93;8.23;;;;;;;19.32;50.61;97831.09;7290181;19;129306;-38
2024/01/17 06:43:46;;;;;;;243.48;9.95;;;;;;;19.33;51.34;97829.31;7293946;19;130164;-38
2024/01/17 06:46:11;;;;;;;164.05;6.60;;;;;;;19.31;51.04;97819.06;7293116;19;132359;-38
2024/01/17 06:48:37;;;;;;;204.20;8.40;;;;;;;19.36;50.92;97810.72;7291293;19;130433;-37
2024/01/17 06:51:03;;;;;;;233.30;9.45;;;;;;;19.59;50.17;97810.78;7290431;19;129631;-41
2024/01/17 06:53:31;;;;;;;241.45;10.10;;;;;;;19.78;49.63;97810.38;7290722;19;131986;-39
2024/01/17 06:55:56;;;;;;;189.35;7.75;;;;;;;19.81;49.43;97797.00;7291466;19;130160;-39
2024/01/17 06:58:22;;;;;;;158.88;6.63;;;;;;;19.84;49.66;97801.84;7294109;19;130405;-41
2024/01/17 07:00:47;;;;;;;199.38;7.88;;;;;;;19.84;49.75;97804.47;7286507;19;131010;-34
2024/01/17 07:03:13;;;;;;;172.20;9.05;;;;;;;19.94;49.73;97794.63;7290375;19;129152;-38
2024/01/17 07:05:39;;;;;;;174.13;7.00;;;;;;;19.83;49.73;97761.13;7294380;19;130966;-39
2024/01/17 07:08:06;;;;;;;166.43;7.13;;;;;;;20.00;49.21;97788.75;7294624;19;131782;-39
2024/01/17 07:10:32;;;;;;;;;;;;;;;19.96;49.86;97777.00;7293452;19;128978;-37
2024/01/17 07:12:57;;;;;;;269.40;10.90;;;;;;;19.86;49.59;97739.91;7291036;19;130285;-38
2024/01/17 07:15:22;;;;;;;215.48;8.93;;;;;;;20.01;49.25;97754.66;7294675;19;129697;-40
2024/01/17 07:17:48;;;;;;;149.45;6.13;;;;;;;19.89;49.56;97723.91;7293509;19;130142;-42
2024/01/17 07:20:13;;;;;;;171.55;6.95;;;;;;;20.11;49.00;97733.53;7292473;19;129792;-38
2024/01/17 07:22:42;;;;;;;255.38;10.38;;;;;;;20.12;49.30;97735.97;7290354;19;130577;-38
2024/01/17 07:25:12;;;;;;;193.48;8.05;;;;;;;20.11;49.74;97734.38;7291512;19;129466;-36
2024/01/17 07:27:45;;;;;;;198.80;8.23;;;;;;;19.97;49.06;97729.06;7290816;19;131518;-35
2024/01/17 07:30:11;;;;;;;173.98;7.32;;;;;;;19.88;48.91;97727.53;7291669;19;129922;-36
2024/01/17 07:32:38;;;;;;;;;;;;;;;19.79;49.42;97707.69;7292299;19;130204;-41
2024/01/17 07:35:04;;;;;;;240.68;10.48;;;;;;;19.76;49.09;97713.25;7288321;19;131307;-36
2024/01/17 07:37:29;;;;;;;149.57;6.37;;;;;;;19.71;49.42;97705.16;7293754;19;130735;-41
2024/01/17 07:39:54;;;;;;;193.57;8.10;;;;;;;19.67;49.08;97672.59;7291672;19;129717;-42
2024/01/17 07:42:21;;;;;;;225.80;8.95;;;;;;;20.01;48.91;97686.84;7293680;19;129354;-40
2024/01/17 07:44:47;;;;;;;191.02;8.00;;;;;;;20.09;49.39;97699.00;7292354;19;131660;-36
2024/01/17 07:47:12;;;;;;;184.98;7.65;;;;;;;20.02;49.12;97703.28;7292881;19;129554;-39
2024/01/17 07:49:39;;;;;;;234.52;9.93;;;;;;;20.08;48.94;97707.81;7290911;19;129452;-41
2024/01/17 07:52:05;;;;;;;238.13;9.80;;;;;;;20.06;49.12;97689.72;7290220;19;129522;-36
2024/01/17 07:54:32;;;;;;;195.95;8.43;;;;;;;20.07;48.95;97680.09;7292483;19;131370;-42
2024/01/17 07:56:57;;;;;;;196.35;7.78;;;;;;;19.85;49.80;97639.22;7291916;19;130482;-42
2024/01/17 07:59:22;;;;;;;168.07;6.88;;;;;;;19.94;49.47;97665.03;7291278;19;129088;-39
2024/01/17 08:01:49;;;;;;;232.32;9.63;;;;;;;19.91;50.28;97664.59;7290471;19;130033;-38
2024/01/17 08:04:15;;;;;;;151.45;6.28;;;;;;;19.94;50.06;97666.84;7293006;19;129077;-38
2024/01/17 08:06:42;;;;;;;202.70;7.97;;;;;;;19.79;50.38;97660.75;7289599;19;131237;-34
2024/01/17 08:09:20;;;;;;;183.48;7.25;;;;;;;19.70;49.86;97620.13;7287168;19;130943;-37
2024/01/17 08:11:47;;;;;;;226.45;8.93;;;;;;;19.78;50.44;97640.91;7291724;19;131382;-40
2024/01/17 08:14:13;;;;;;;186.55;7.55;;;;;;;19.70;50.24;97643.56;7293593;19;132884;-37
2024/01/17 08:16:38;;;;;;;211.13;8.77;;;;;;;19.59;50.69;97630.94;7291039;19;130056;-41
2024/01/17 08:19:05;;;;;;;127.75;5.35;;;;;;;19.54;49.91;97636.66;7290374;19;129300;-42
2024/01/17 08:21:31;;;;;;;230.65;9.40;;;;;;;19.50;50.12;97629.38;7287319;19;130164;-38
2024/01/17 08:23:56;;;;;;;186.20;7.40;;;;;;;19.45;50.45;97627.31;7290303;19;130129;-36
2024/01/17 08:26:22;;;;;;;179.95;7.35;;;;;;;19.44;50.57;97634.31;7293244;19;132733;-42
2024/01/17 08:28:47;;;;;;;165.00;6.78;;;;;;;19.43;50.32;97630.09;7290310;19;129860;-41
2024/01/17 08:31:13;;;;;;;185.48;7.32;;;;;;;19.59;50.63;97615.28;7289498;19;129161;-37
2024/01/17 08:33:39;;;;;;;297.08;12.77;;;;;;;19.69;49.83;97613.25;7290712;19;131480;-35
2024/01/17 08:36:07;;;;;;;105.77;4.43;;;;;;;19.54;50.58;97583.72;7289943;19;132303;-40
2024/01/17 08:38:32;;;;;;;208.82;8.70;;;;;;;19.70;50.13;97620.13;7289511;19;129728;-38
2024/01/17 08:40:57;;;;;;;251.35;9.98;;;;;;;19.74;50.23;97609.16;7287954;19;131308;-39
2024/01/17 08:43:23;;;;;;;213.13;8.68;;;;;;;19.73;50.48;97598.91;7292392;19;130136;-41
2024/01/17 08:45:48;;;;;;;132.55;5.53;;;;;;;19.69;50.82;97592.41;7288416;19;130173;-38
2024/01/17 08:48:14;;;;;;;163.98;6.75;;;;;;;19.66;50.15;97587.53;7289332;19;129714;-36
2024/01/17 08:50:39;;;;;;;243.38;9.57;;;;;;;19.65;50.28;97584.13;7289948;19;129573;-37
2024/01/17 08:53:05;;;;;;;202.07;8.20;;;;;;;19.64;50.77;97585.13;7291063;19;130253;-40
2024/01/17 08:55:31;;;;;;;209.47;8.50;;;;;;;19.64;50.41;97577.31;7290542;19;130362;-41
2024/01/17 08:57:57;;;;;;;118.45;4.97;;;;;;;19.64;51.18;97581.69;7291762;19;131675;-40
2024/01/17 09:00:22;;;;;;;222.35;9.23;;;;;;;19.44;50.73;97550.09;7288402;19;131424;-38
2024/01/17 09:02:47;;;;;;;159.98;6.78;;;;;;;19.59;51.12;97566.59;7291330;19;130050;-40
2024/01/17 09:05:13;;;;;;;174.05;7.00;;;;;;;19.63;51.13;97559.22;7289913;19;130450;-41
2024/01/17 09:07:38;;;;;;;231.13;9.50;;;;;;;19.54;50.79;97555.06;7290499;19;129350;-40
2024/01/17 09:10:04;;;;;;;210.70;8.35;;;;;;;19.47;50.39;97549.75;7289218;19;129158;-38
2024/01/17 09:12:30;;;;;;;160.88;6.85;;;;;;;19.45;51.02;97549.91;7289924;19;130172;-36
2024/01/17 09:14:55;;;;;;;186.97;8.27;;;;;;;19.26;50.98;97507.88;7288339;19;132947;-41
2024/01/17 09:17:20;;;;;;;225.65;9.13;;;;;;;19.40;51.03;97536.59;7290540;19;129340;-40
2024/01/17 09:19:46;;;;;;;207.25;8.38;;;;;;;19.44;50.41;97542.28;7286868;19;129615;-36
2024/01/17 09:22:12;;;;;;;179.43;7.17;;;;;;;19.50;50.16;97546.00;7289258;19;130677;-38
2024/01/17 09:24:39;;;;;;;174.15;7.10;;;;;;;19.75;49.74;97534.38;7288629;19;130293;-41
2024/01/17 09:27:05;;;;;;;178.73;7.13;;;;;;;19.82;50.22;97520.44;7289143;19;130383;-39
2024/01/17 09:29:33;;;;;;;178.98;7.40;;;;;;;19.88;50.11;97513.69;7288214;19;130581;-35
2024/01/17 09:32:00;;;;;;;197.00;7.95;;;;;;;20.05;49.17;97517.72;7289522;19;131580;-34
2024/01/17 09:34:25;;;;;;;102.47;4.45;;;;;;;19.99;49.61;97518.47;7289457;19;130716;-39
2024/01/17 09:36:52;;;;;;;226.93;9.10;;;;;;;20.04;49.35;97510.91;7290320;19;132023;-39
2024/01/17 09:39:17;;;;;;;189.88;7.90;;;;;;;19.96;49.37;97505.78;7288945;19;129198;-36
2024/01/17 09:41:42;;;;;;;200.00;8.10;;;;;;;19.99;49.54;97500.19;7286632;19;130814;-35
2024/01/17 09:44:08;;;;;;;182.30;7.32;;;;;;;19.86;49.50;97473.94;7290371;19;130690;-40
2024/01/17 09:46:36;;;;;;;249.35;10.32;;;;;;;19.98;49.83;97491.56;7290971;19;129319;-40
2024/01/17 09:49:02;;;;;;;214.32;8.63;;;;;;;20.03;49.75;97488.44;7295494;19;129311;-36
2024/01/17 09:51:31;;;;;;;205.40;8.38;;;;;;;19.99;49.99;97484.56;7297374;19;130152;-40
2024/01/17 09:53:59;;;;;;;159.75;6.53;;;;;;;19.96;49.78;97477.09;7296660;19;130446;-37
2024/01/17 09:56:28;;;;;;;170.65;6.85;;;;;;;19.92;49.68;97465.41;7296597;19;129086;-37
2024/01/17 09:58:55;;;;;;;221.18;8.93;;;;;;;19.91;49.77;97458.56;7293878;19;129300;-37
2024/01/17 10:01:23;;;;;;;186.40;7.57;;;;;;;19.87;49.52;97452.09;7294775;19;130696;-39
2024/01/17 10:03:49;;;;;;;214.23;8.77;;;;;;;19.81;49.54;97443.22;7295816;19;129712;-41
2024/01/17 10:06:16;;;;;;;195.48;7.65;;;;;;;19.73;49.76;97437.28;7297877;19;131244;-40
2024/01/17 10:08:43;;;;;;;222.40;11.77;;;;;;;19.73;49.38;97432.06;7294874;19;130958;-38
2024/01/17 10:11:08;;;;;;;171.00;7.07;;;;;;;19.70;49.44;97429.81;7297644;19;130267;-35
2024/01/17 10:13:34;;;;;;;132.70;5.70;;;;;;;19.71;49.55;97421.00;7295890;19;130993;-37
2024/01/17 10:16:00;;;;;;;259.83;10.25;;;;;;;19.95;49.88;97418.13;7295088;19;129304;-41
2024/01/17 10:18:26;;;;;;;;;;;;;;;20.05;49.17;97421.22;7297342;19;129924;-36
2024/01/17 10:20:53;;;;;;;140.02;6.07;;;;;;;20.08;49.42;97408.63;7291552;19;130205;-37
2024/01/17 10:23:18;;;;;;;177.57;7.55;;;;;;;20.15;49.06;97380.84;7297257;19;131058;-39
2024/01/17 10:25:44;;;;;;;182.38;7.63;;;;;;;20.18;49.52;97401.34;7295053;19;130097;-39
2024/01/17 10:28:09;;;;;;;226.57;9.75;;;;;;;20.10;49.40;97384.97;7295045;19;130699;-35
2024/01/17 10:30:39;;;;;;;165.45;6.78;;;;;;;20.03;49.38;97379.69;7296797;19;130509;-41
2024/01/17 10:33:07;;;;;;;187.48;7.45;;;;;;;20.03;49.50;97371.06;7296916;19;132048;-39
2024/01/17 10:35:32;;;;;;;226.18;9.02;;;;;;;20.08;50.04;97368.72;7293682;19;131104;-40
2024/01/17 10:37:58;;;;;;;181.27;7.22;;;;;;;20.04;49.52;97364.84;7296061;19;129521;-36
2024/01/17 10:40:23;;;;;;;198.55;7.88;;;;;;;19.99;50.12;97361.97;7292167;19;130926;-36
2024/01/17 10:43:13;;;;;;;260.90;10.73;;;;;;;19.91;50.52;97351.66;7290853;19;130383;-40
2024/01/17 10:45:40;;;;;;;123.43;5.35;;;;;;;19.88;50.38;97347.63;7293180;19;131782;-40
2024/01/17 10:48:09;;;;;;;204.40;8.13;;;;;;;19.91;50.07;97333.41;7296764;19;131836;-41
2024/01/17 10:50:35;;;;;;;232.73;9.38;;;;;;;19.78;50.09;97320.22;7294824;19;130703;-37
2024/01/17 10:53:05;;;;;;;200.57;8.30;;;;;;;19.67;49.90;97323.31;7294233;19;129448;-38
2024/01/17 10:55:37;;;;;;;148.20;6.05;;;;;;;19.58;50.13;97313.97;7295172;19;129402;-38
2024/01/17 10:58:11;;;;;;;150.27;6.10;;;;;;;19.52;51.02;97314.69;7291012;19;130017;-42
2024/01/17 11:00:40;;;;;;;225.18;9.25;;;;;;;19.48;50.43;97294.19;7294657;19;130218;-36
2024/01/17 11:03:09;;;;;;;207.00;8.63;;;;;;;19.47;50.82;97285.78;7296006;19;130300;-36
2024/01/17 11:05:43;;;;;;;199.02;7.93;;;;;;;19.47;50.42;97285.78;7295195;19;129439;-41